sensor_id;sensor_type;location;lat;lon;timestamp;pressure;altitude;pressure_sealevel;temperature;humidity
56182;BME280;51963;46.052;14.544;2023-05-02T00:00:27;98150.72;;;12.01;100.00
56182;BME280;51963;46.052;14.544;2023-05-02T00:02:55;98148.47;;;12.05;100.00
56182;BME280;51963;46.052;14.544;2023-05-02T00:05:21;98150.94;;;12.06;100.00
56182;BME280;51963;46.052;14.544;2023-05-02T00:07:47;98148.25;;;11.93;100.00
56182;BME280;51963;46.052;14.544;2023-05-02T00:10:13;98144.16;;;11.97;100.00
56182;BME280;51963;46.052;14.544;2023-05-02T00:12:38;98142.31;;;11.97;100.00
56182;BME280;51963;46.052;14.544;2023-05-02T00:15:05;98131.09;;;11.95;100.00
56182;BME280;51963;46.052;14.544;2023-05-02T00:17:31;98140.13;;;12.14;100.00
56182;BME280;51963;46.052;14.544;2023-05-02T00:19:56;98141.13;;;12.20;100.00
56182;BME280;51963;46.052;14.544;2023-05-02T00:22:22;98121.78;;;12.06;100.00
56182;BME280;51963;46.052;14.544;2023-05-02T00:24:48;98131.16;;;12.09;100.00
56182;BME280;51963;46.052;14.544;2023-05-02T00:27:13;98135.84;;;12.13;100.00
56182;BME280;51963;46.052;14.544;2023-05-02T00:29:39;98131.97;;;12.16;100.00
56182;BME280;51963;46.052;14.544;2023-05-02T00:32:06;98128.69;;;12.14;100.00
56182;BME280;51963;46.052;14.544;2023-05-02T00:34:31;98106.91;;;12.05;100.00
56182;BME280;51963;46.052;14.544;2023-05-02T00:36:58;98105.28;;;12.04;100.00
56182;BME280;51963;46.052;14.544;2023-05-02T00:39:24;98111.56;;;12.23;100.00
56182;BME280;51963;46.052;14.544;2023-05-02T00:41:57;98103.03;;;12.01;100.00
56182;BME280;51963;46.052;14.544;2023-05-02T00:44:23;98113.81;;;11.93;100.00
56182;BME280;51963;46.052;14.544;2023-05-02T00:46:49;98100.16;;;11.96;100.00
56182;BME280;51963;46.052;14.544;2023-05-02T00:49:15;98086.69;;;11.77;100.00
56182;BME280;51963;46.052;14.544;2023-05-02T00:51:41;98079.53;;;11.78;100.00
56182;BME280;51963;46.052;14.544;2023-05-02T00:54:06;98057.34;;;11.72;100.00
56182;BME280;51963;46.052;14.544;2023-05-02T00:56:32;98082.22;;;11.98;100.00
56182;BME280;51963;46.052;14.544;2023-05-02T00:58:58;98071.25;;;12.01;100.00
56182;BME280;51963;46.052;14.544;2023-05-02T01:07:40;98047.56;;;11.93;100.00
56182;BME280;51963;46.052;14.544;2023-05-02T01:13:08;98033.50;;;11.92;100.00
56182;BME280;51963;46.052;14.544;2023-05-02T01:15:40;98026.38;;;11.93;100.00
56182;BME280;51963;46.052;14.544;2023-05-02T01:18:11;98031.47;;;11.87;100.00
56182;BME280;51963;46.052;14.544;2023-05-02T01:20:40;98034.72;;;11.89;100.00
56182;BME280;51963;46.052;14.544;2023-05-02T01:23:24;98033.72;;;11.91;100.00
56182;BME280;51963;46.052;14.544;2023-05-02T01:28:57;98034.94;;;11.74;100.00
56182;BME280;51963;46.052;14.544;2023-05-02T01:31:49;98030.22;;;11.63;100.00
56182;BME280;51963;46.052;14.544;2023-05-02T01:34:18;98032.09;;;11.76;100.00
56182;BME280;51963;46.052;14.544;2023-05-02T01:36:46;98036.56;;;11.82;100.00
56182;BME280;51963;46.052;14.544;2023-05-02T01:39:18;98030.03;;;11.85;100.00
56182;BME280;51963;46.052;14.544;2023-05-02T01:41:48;98021.09;;;11.79;100.00
56182;BME280;51963;46.052;14.544;2023-05-02T01:44:17;98013.13;;;11.66;100.00
56182;BME280;51963;46.052;14.544;2023-05-02T01:46:45;98015.38;;;11.69;100.00
56182;BME280;51963;46.052;14.544;2023-05-02T01:49:11;98026.78;;;11.76;100.00
56182;BME280;51963;46.052;14.544;2023-05-02T01:51:50;98023.13;;;11.77;100.00
56182;BME280;51963;46.052;14.544;2023-05-02T01:54:19;98018.22;;;11.67;100.00
56182;BME280;51963;46.052;14.544;2023-05-02T01:56:46;98018.03;;;11.69;100.00
56182;BME280;51963;46.052;14.544;2023-05-02T01:59:18;98020.88;;;11.74;100.00
56182;BME280;51963;46.052;14.544;2023-05-02T02:01:44;98012.72;;;11.69;100.00
56182;BME280;51963;46.052;14.544;2023-05-02T02:04:13;98003.34;;;11.53;100.00
56182;BME280;51963;46.052;14.544;2023-05-02T02:06:41;97989.28;;;11.45;100.00
56182;BME280;51963;46.052;14.544;2023-05-02T02:09:08;98002.53;;;11.59;100.00
56182;BME280;51963;46.052;14.544;2023-05-02T02:11:42;97996.84;;;11.55;100.00
56182;BME280;51963;46.052;14.544;2023-05-02T02:14:16;97998.25;;;11.71;100.00
56182;BME280;51963;46.052;14.544;2023-05-02T02:16:43;98003.97;;;11.62;100.00
56182;BME280;51963;46.052;14.544;2023-05-02T02:19:12;97976.28;;;11.44;100.00
56182;BME280;51963;46.052;14.544;2023-05-02T02:21:43;97989.91;;;11.54;100.00
56182;BME280;51963;46.052;14.544;2023-05-02T02:24:16;97983.78;;;11.40;100.00
56182;BME280;51963;46.052;14.544;2023-05-02T02:26:43;97997.03;;;11.34;100.00
56182;BME280;51963;46.052;14.544;2023-05-02T02:29:08;98002.50;;;11.25;100.00
56182;BME280;51963;46.052;14.544;2023-05-02T02:31:35;97999.44;;;11.15;100.00
56182;BME280;51963;46.052;14.544;2023-05-02T02:34:02;97992.91;;;11.11;100.00
56182;BME280;51963;46.052;14.544;2023-05-02T02:36:35;97979.84;;;10.96;100.00
56182;BME280;51963;46.052;14.544;2023-05-02T02:39:21;97991.47;;;11.02;100.00
56182;BME280;51963;46.052;14.544;2023-05-02T02:42:11;97979.88;;;11.03;100.00
56182;BME280;51963;46.052;14.544;2023-05-02T02:44:46;97978.06;;;11.10;100.00
56182;BME280;51963;46.052;14.544;2023-05-02T02:47:46;97973.41;;;11.25;100.00
56182;BME280;51963;46.052;14.544;2023-05-02T02:58:00;97973.81;;;11.49;100.00
56182;BME280;51963;46.052;14.544;2023-05-02T03:00:28;97961.59;;;11.35;100.00
56182;BME280;51963;46.052;14.544;2023-05-02T03:02:56;97955.69;;;11.39;100.00
56182;BME280;51963;46.052;14.544;2023-05-02T03:05:23;97964.47;;;11.53;100.00
56182;BME280;51963;46.052;14.544;2023-05-02T03:07:49;97953.47;;;11.56;100.00
56182;BME280;51963;46.052;14.544;2023-05-02T03:10:15;97956.72;;;11.72;100.00
56182;BME280;51963;46.052;14.544;2023-05-02T03:12:42;97955.06;;;11.84;100.00
56182;BME280;51963;46.052;14.544;2023-05-02T03:17:40;97952.19;;;11.86;100.00
56182;BME280;51963;46.052;14.544;2023-05-02T03:20:06;97960.75;;;11.95;100.00
56182;BME280;51963;46.052;14.544;2023-05-02T03:22:32;97962.59;;;11.87;100.00
56182;BME280;51963;46.052;14.544;2023-05-02T03:24:59;97954.88;;;11.79;100.00
56182;BME280;51963;46.052;14.544;2023-05-02T03:27:25;97955.88;;;11.92;100.00
56182;BME280;51963;46.052;14.544;2023-05-02T03:29:51;97956.91;;;11.70;100.00
56182;BME280;51963;46.052;14.544;2023-05-02T03:32:18;97956.31;;;11.75;100.00
56182;BME280;51963;46.052;14.544;2023-05-02T03:34:45;97975.44;;;11.77;100.00
56182;BME280;51963;46.052;14.544;2023-05-02T03:37:11;97970.34;;;11.76;100.00
56182;BME280;51963;46.052;14.544;2023-05-02T03:39:37;97962.81;;;11.59;100.00
56182;BME280;51963;46.052;14.544;2023-05-02T03:42:04;97964.66;;;11.72;100.00
56182;BME280;51963;46.052;14.544;2023-05-02T03:44:30;97964.66;;;11.58;100.00
56182;BME280;51963;46.052;14.544;2023-05-02T03:46:56;97958.75;;;11.50;100.00
56182;BME280;51963;46.052;14.544;2023-05-02T03:49:22;97972.19;;;11.62;100.00
56182;BME280;51963;46.052;14.544;2023-05-02T03:51:50;97970.94;;;11.78;100.00
56182;BME280;51963;46.052;14.544;2023-05-02T03:54:22;97977.47;;;11.82;100.00
56182;BME280;51963;46.052;14.544;2023-05-02T03:56:51;97973.00;;;11.69;100.00
56182;BME280;51963;46.052;14.544;2023-05-02T03:59:23;97963.25;;;11.63;100.00
56182;BME280;51963;46.052;14.544;2023-05-02T04:01:50;97957.13;;;11.55;100.00
56182;BME280;51963;46.052;14.544;2023-05-02T04:04:19;97957.13;;;11.55;100.00
56182;BME280;51963;46.052;14.544;2023-05-02T04:06:49;97976.69;;;11.68;100.00
56182;BME280;51963;46.052;14.544;2023-05-02T04:09:15;97983.19;;;11.85;100.00
56182;BME280;51963;46.052;14.544;2023-05-02T04:11:50;97983.16;;;11.99;100.00
56182;BME280;51963;46.052;14.544;2023-05-02T04:14:17;98000.28;;;11.89;100.00
56182;BME280;51963;46.052;14.544;2023-05-02T04:16:50;97988.69;;;11.64;100.00
56182;BME280;51963;46.052;14.544;2023-05-02T04:19:21;98005.41;;;11.57;100.00
56182;BME280;51963;46.052;14.544;2023-05-02T04:21:47;98008.44;;;11.41;100.00
56182;BME280;51963;46.052;14.544;2023-05-02T04:24:14;98009.22;;;11.28;100.00
56182;BME280;51963;46.052;14.544;2023-05-02T04:26:40;98018.19;;;11.20;100.00
56182;BME280;51963;46.052;14.544;2023-05-02T04:29:09;98017.97;;;11.15;100.00
56182;BME280;51963;46.052;14.544;2023-05-02T04:31:35;98018.16;;;11.07;100.00
56182;BME280;51963;46.052;14.544;2023-05-02T04:34:01;98025.94;;;11.28;100.00
56182;BME280;51963;46.052;14.544;2023-05-02T04:36:33;98022.25;;;11.36;100.00
56182;BME280;51963;46.052;14.544;2023-05-02T04:39:00;98019.44;;;11.38;100.00
56182;BME280;51963;46.052;14.544;2023-05-02T04:41:30;98029.81;;;11.46;100.00
56182;BME280;51963;46.052;14.544;2023-05-02T04:44:02;98032.47;;;11.46;100.00
56182;BME280;51963;46.052;14.544;2023-05-02T04:46:28;98029.44;;;11.63;100.00
56182;BME280;51963;46.052;14.544;2023-05-02T04:48:55;98040.03;;;11.76;100.00
56182;BME280;51963;46.052;14.544;2023-05-02T04:51:20;98043.91;;;11.80;100.00
56182;BME280;51963;46.052;14.544;2023-05-02T04:53:48;98023.72;;;11.66;100.00
56182;BME280;51963;46.052;14.544;2023-05-02T04:56:14;98030.06;;;11.78;100.00
56182;BME280;51963;46.052;14.544;2023-05-02T04:58:41;98043.47;;;11.77;100.00
56182;BME280;51963;46.052;14.544;2023-05-02T05:01:08;98040.22;;;11.68;100.00
56182;BME280;51963;46.052;14.544;2023-05-02T05:03:36;98050.41;;;11.71;100.00
56182;BME280;51963;46.052;14.544;2023-05-02T05:06:02;98047.56;;;11.52;100.00
56182;BME280;51963;46.052;14.544;2023-05-02T05:08:28;98067.09;;;11.51;100.00
56182;BME280;51963;46.052;14.544;2023-05-02T05:10:55;98059.75;;;11.40;100.00
56182;BME280;51963;46.052;14.544;2023-05-02T05:13:22;98072.56;;;11.43;100.00
56182;BME280;51963;46.052;14.544;2023-05-02T05:15:49;98071.16;;;11.47;100.00
56182;BME280;51963;46.052;14.544;2023-05-02T05:18:16;98058.72;;;11.41;100.00
56182;BME280;51963;46.052;14.544;2023-05-02T05:20:42;98073.63;;;11.55;100.00
56182;BME280;51963;46.052;14.544;2023-05-02T05:23:09;98080.16;;;11.59;100.00
56182;BME280;51963;46.052;14.544;2023-05-02T05:25:34;98072.19;;;11.59;100.00
56182;BME280;51963;46.052;14.544;2023-05-02T05:28:00;98071.38;;;11.52;100.00
56182;BME280;51963;46.052;14.544;2023-05-02T05:30:27;98059.34;;;11.43;100.00
56182;BME280;51963;46.052;14.544;2023-05-02T05:32:56;98062.22;;;11.48;100.00
56182;BME280;51963;46.052;14.544;2023-05-02T05:35:25;98078.09;;;11.62;100.00
56182;BME280;51963;46.052;14.544;2023-05-02T05:37:52;98069.97;;;11.56;100.00
56182;BME280;51963;46.052;14.544;2023-05-02T05:40:19;98071.38;;;11.72;100.00
56182;BME280;51963;46.052;14.544;2023-05-02T05:42:50;98085.03;;;11.83;100.00
56182;BME280;51963;46.052;14.544;2023-05-02T05:45:22;98077.94;;;12.03;100.00
56182;BME280;51963;46.052;14.544;2023-05-02T05:47:47;98086.31;;;12.14;100.00
56182;BME280;51963;46.052;14.544;2023-05-02T05:50:13;98090.78;;;12.20;100.00
56182;BME280;51963;46.052;14.544;2023-05-02T05:52:40;98083.84;;;12.19;100.00
56182;BME280;51963;46.052;14.544;2023-05-02T05:55:06;98094.47;;;12.26;100.00
56182;BME280;51963;46.052;14.544;2023-05-02T05:57:33;98102.22;;;12.34;100.00
56182;BME280;51963;46.052;14.544;2023-05-02T05:59:59;98097.31;;;12.31;100.00
56182;BME280;51963;46.052;14.544;2023-05-02T06:02:25;98099.75;;;12.26;100.00
56182;BME280;51963;46.052;14.544;2023-05-02T06:04:51;98095.91;;;12.22;100.00
56182;BME280;51963;46.052;14.544;2023-05-02T06:07:26;98094.69;;;12.17;100.00
56182;BME280;51963;46.052;14.544;2023-05-02T06:09:52;98085.50;;;12.07;100.00
56182;BME280;51963;46.052;14.544;2023-05-02T06:12:18;98086.28;;;12.27;100.00
56182;BME280;51963;46.052;14.544;2023-05-02T06:14:44;98099.16;;;12.37;100.00
56182;BME280;51963;46.052;14.544;2023-05-02T06:17:13;98105.06;;;12.39;100.00
56182;BME280;51963;46.052;14.544;2023-05-02T06:19:39;98099.16;;;12.24;100.00
56182;BME280;51963;46.052;14.544;2023-05-02T06:22:05;98099.56;;;12.07;100.00
56182;BME280;51963;46.052;14.544;2023-05-02T06:24:31;98100.38;;;12.14;100.00
56182;BME280;51963;46.052;14.544;2023-05-02T06:26:58;98105.88;;;12.20;100.00
56182;BME280;51963;46.052;14.544;2023-05-02T06:29:24;98110.34;;;12.32;100.00
56182;BME280;51963;46.052;14.544;2023-05-02T06:31:54;98113.19;;;12.38;100.00
56182;BME280;51963;46.052;14.544;2023-05-02T06:34:24;98107.91;;;12.44;100.00
56182;BME280;51963;46.052;14.544;2023-05-02T06:36:54;98127.69;;;12.49;100.00
56182;BME280;51963;46.052;14.544;2023-05-02T06:39:21;98131.13;;;12.49;100.00
56182;BME280;51963;46.052;14.544;2023-05-02T06:41:47;98130.56;;;12.27;100.00
56182;BME280;51963;46.052;14.544;2023-05-02T06:44:17;98070.38;;;11.80;100.00
56182;BME280;51963;46.052;14.544;2023-05-02T06:46:42;98128.28;;;12.17;100.00
56182;BME280;51963;46.052;14.544;2023-05-02T06:49:09;98121.16;;;12.11;100.00
56182;BME280;51963;46.052;14.544;2023-05-02T06:51:35;98126.06;;;12.07;100.00
56182;BME280;51963;46.052;14.544;2023-05-02T06:54:01;98119.75;;;12.08;100.00
56182;BME280;51963;46.052;14.544;2023-05-02T06:56:26;98117.31;;;12.13;100.00
56182;BME280;51963;46.052;14.544;2023-05-02T06:58:52;98117.09;;;12.08;100.00
56182;BME280;51963;46.052;14.544;2023-05-02T07:01:18;98126.06;;;12.07;100.00
56182;BME280;51963;46.052;14.544;2023-05-02T07:03:45;98115.44;;;11.94;100.00
56182;BME280;51963;46.052;14.544;2023-05-02T07:06:13;98121.13;;;11.97;100.00
56182;BME280;51963;46.052;14.544;2023-05-02T07:08:38;98119.75;;;12.08;100.00
56182;BME280;51963;46.052;14.544;2023-05-02T07:11:04;98120.97;;;12.06;100.00
56182;BME280;51963;46.052;14.544;2023-05-02T07:13:30;98119.75;;;12.22;100.00
56182;BME280;51963;46.052;14.544;2023-05-02T07:15:58;98130.31;;;12.42;100.00
56182;BME280;51963;46.052;14.544;2023-05-02T07:18:24;98140.13;;;12.41;100.00
56182;BME280;51963;46.052;14.544;2023-05-02T07:20:50;98132.56;;;12.45;100.00
56182;BME280;51963;46.052;14.544;2023-05-02T07:23:16;98128.50;;;12.36;100.00
56182;BME280;51963;46.052;14.544;2023-05-02T07:25:42;98125.63;;;12.51;100.00
56182;BME280;51963;46.052;14.544;2023-05-02T07:28:09;98132.34;;;12.60;100.00
56182;BME280;51963;46.052;14.544;2023-05-02T07:30:35;98130.88;;;12.84;100.00
56182;BME280;51963;46.052;14.544;2023-05-02T07:33:01;98138.44;;;12.81;100.00
56182;BME280;51963;46.052;14.544;2023-05-02T07:35:27;98134.78;;;12.61;100.00
56182;BME280;51963;46.052;14.544;2023-05-02T07:37:53;98140.03;;;12.88;100.00
56182;BME280;51963;46.052;14.544;2023-05-02T07:40:19;98143.09;;;12.92;100.00
56182;BME280;51963;46.052;14.544;2023-05-02T07:42:45;98158.19;;;12.98;100.00
56182;BME280;51963;46.052;14.544;2023-05-02T07:45:11;98155.97;;;12.82;100.00
56182;BME280;51963;46.052;14.544;2023-05-02T07:47:36;98161.69;;;12.72;100.00
56182;BME280;51963;46.052;14.544;2023-05-02T07:50:02;98161.72;;;12.58;100.00
56182;BME280;51963;46.052;14.544;2023-05-02T07:52:29;98166.41;;;12.63;100.00
56182;BME280;51963;46.052;14.544;2023-05-02T07:54:57;98167.63;;;12.67;100.00
56182;BME280;51963;46.052;14.544;2023-05-02T07:57:23;98170.09;;;12.62;100.00
56182;BME280;51963;46.052;14.544;2023-05-02T07:59:49;98171.50;;;12.71;100.00
56182;BME280;51963;46.052;14.544;2023-05-02T08:02:15;98160.94;;;12.31;100.00
56182;BME280;51963;46.052;14.544;2023-05-02T08:04:45;98181.31;;;12.37;100.00
56182;BME280;51963;46.052;14.544;2023-05-02T08:07:11;98181.53;;;12.29;100.00
56182;BME280;51963;46.052;14.544;2023-05-02T08:09:37;98167.03;;;12.11;100.00
56182;BME280;51963;46.052;14.544;2023-05-02T08:12:03;98180.28;;;12.18;100.00
56182;BME280;51963;46.052;14.544;2023-05-02T08:14:29;98182.34;;;12.23;100.00
56182;BME280;51963;46.052;14.544;2023-05-02T08:16:58;98191.31;;;12.22;100.00
56182;BME280;51963;46.052;14.544;2023-05-02T08:19:25;98186.81;;;12.22;100.00
56182;BME280;51963;46.052;14.544;2023-05-02T08:21:52;98187.84;;;12.28;100.00
56182;BME280;51963;46.052;14.544;2023-05-02T08:24:18;98176.81;;;12.51;100.00
56182;BME280;51963;46.052;14.544;2023-05-02T08:26:46;98177.22;;;12.68;100.00
56182;BME280;51963;46.052;14.544;2023-05-02T08:29:12;98172.94;;;12.67;100.00
56182;BME280;51963;46.052;14.544;2023-05-02T08:31:39;98177.19;;;12.95;100.00
56182;BME280;51963;46.052;14.544;2023-05-02T08:34:05;98142.50;;;12.90;100.00
56182;BME280;51963;46.052;14.544;2023-05-02T08:36:31;98184.66;;;13.32;100.00
56182;BME280;51963;46.052;14.544;2023-05-02T08:38:56;98171.28;;;13.52;100.00
56182;BME280;51963;46.052;14.544;2023-05-02T08:41:22;98193.38;;;13.53;100.00
56182;BME280;51963;46.052;14.544;2023-05-02T08:43:48;98191.22;;;13.75;100.00
56182;BME280;51963;46.052;14.544;2023-05-02T08:46:15;98191.22;;;13.75;100.00
56182;BME280;51963;46.052;14.544;2023-05-02T08:48:43;98191.38;;;13.80;100.00
56182;BME280;51963;46.052;14.544;2023-05-02T08:51:16;98192.41;;;13.79;100.00
56182;BME280;51963;46.052;14.544;2023-05-02T08:53:43;98195.75;;;13.68;100.00
56182;BME280;51963;46.052;14.544;2023-05-02T08:56:10;98176.53;;;13.66;100.00
56182;BME280;51963;46.052;14.544;2023-05-02T08:58:38;98190.47;;;13.61;100.00
56182;BME280;51963;46.052;14.544;2023-05-02T09:01:13;98179.19;;;13.66;100.00
56182;BME280;51963;46.052;14.544;2023-05-02T09:03:39;98170.72;;;13.82;100.00
56182;BME280;51963;46.052;14.544;2023-05-02T09:06:09;98178.38;;;14.04;100.00
56182;BME280;51963;46.052;14.544;2023-05-02T09:08:35;98178.00;;;14.26;100.00
56182;BME280;51963;46.052;14.544;2023-05-02T09:11:02;98201.84;;;14.39;100.00
56182;BME280;51963;46.052;14.544;2023-05-02T09:13:29;98201.47;;;14.35;100.00
56182;BME280;51963;46.052;14.544;2023-05-02T09:15:59;98204.44;;;14.20;100.00
56182;BME280;51963;46.052;14.544;2023-05-02T09:18:39;98212.22;;;14.15;100.00
56182;BME280;51963;46.052;14.544;2023-05-02T09:21:09;98206.66;;;13.91;100.00
56182;BME280;51963;46.052;14.544;2023-05-02T09:23:40;98221.03;;;13.77;100.00
56182;BME280;51963;46.052;14.544;2023-05-02T09:26:24;98201.47;;;13.64;100.00
56182;BME280;51963;46.052;14.544;2023-05-02T09:29:03;98195.38;;;13.64;100.00
56182;BME280;51963;46.052;14.544;2023-05-02T09:31:32;98215.31;;;13.80;100.00
56182;BME280;51963;46.052;14.544;2023-05-02T09:36:48;98214.81;;;13.97;100.00
56182;BME280;51963;46.052;14.544;2023-05-02T09:39:17;98198.06;;;13.96;100.00
56182;BME280;51963;46.052;14.544;2023-05-02T09:41:44;98201.38;;;13.85;100.00
56182;BME280;51963;46.052;14.544;2023-05-02T09:44:12;98228.84;;;14.11;100.00
56182;BME280;51963;46.052;14.544;2023-05-02T09:46:42;98216.94;;;13.81;100.00
56182;BME280;51963;46.052;14.544;2023-05-02T09:49:08;98233.28;;;13.78;100.00
56182;BME280;51963;46.052;14.544;2023-05-02T09:51:34;98229.97;;;13.89;100.00
56182;BME280;51963;46.052;14.544;2023-05-02T09:54:00;98227.06;;;13.98;100.00
56182;BME280;51963;46.052;14.544;2023-05-02T09:56:26;98236.84;;;14.04;100.00
56182;BME280;51963;46.052;14.544;2023-05-02T09:59:13;98233.28;;;13.85;100.00
56182;BME280;51963;46.052;14.544;2023-05-02T10:01:39;98224.22;;;13.92;100.00
56182;BME280;51963;46.052;14.544;2023-05-02T10:04:13;98222.16;;;14.01;100.00
56182;BME280;51963;46.052;14.544;2023-05-02T10:06:44;98242.94;;;14.11;100.00
56182;BME280;51963;46.052;14.544;2023-05-02T10:09:10;98236.38;;;14.14;100.00
56182;BME280;51963;46.052;14.544;2023-05-02T10:11:38;98215.13;;;13.75;100.00
56182;BME280;51963;46.052;14.544;2023-05-02T10:14:08;98236.53;;;13.87;100.00
56182;BME280;51963;46.052;14.544;2023-05-02T10:16:35;98217.66;;;13.63;100.00
56182;BME280;51963;46.052;14.544;2023-05-02T10:19:23;98185.00;;;13.49;100.00
56182;BME280;51963;46.052;14.544;2023-05-02T10:21:52;98241.50;;;13.76;100.00
56182;BME280;51963;46.052;14.544;2023-05-02T10:24:19;98246.69;;;13.97;100.00
56182;BME280;51963;46.052;14.544;2023-05-02T10:26:46;98248.25;;;14.11;100.00
56182;BME280;51963;46.052;14.544;2023-05-02T10:29:12;98233.47;;;13.90;100.00
56182;BME280;51963;46.052;14.544;2023-05-02T10:31:40;98243.25;;;13.89;100.00
56182;BME280;51963;46.052;14.544;2023-05-02T10:34:10;98239.03;;;13.75;100.00
56182;BME280;51963;46.052;14.544;2023-05-02T10:36:35;98237.41;;;13.74;100.00
56182;BME280;51963;46.052;14.544;2023-05-02T10:39:02;98234.38;;;13.63;100.00
56182;BME280;51963;46.052;14.544;2023-05-02T10:41:30;98239.44;;;13.78;100.00
56182;BME280;51963;46.052;14.544;2023-05-02T10:43:59;98240.88;;;14.13;100.00
56182;BME280;51963;46.052;14.544;2023-05-02T10:46:34;98242.41;;;14.28;100.00
56182;BME280;51963;46.052;14.544;2023-05-02T10:49:07;98225.22;;;13.98;100.00
56182;BME280;51963;46.052;14.544;2023-05-02T10:51:35;98241.38;;;14.29;100.00
56182;BME280;51963;46.052;14.544;2023-05-02T10:54:22;98239.22;;;14.19;100.00
56182;BME280;51963;46.052;14.544;2023-05-02T10:59:30;98241.66;;;14.20;100.00
56182;BME280;51963;46.052;14.544;2023-05-02T11:01:56;98232.56;;;14.35;100.00
56182;BME280;51963;46.052;14.544;2023-05-02T11:04:23;98231.97;;;14.58;100.00
56182;BME280;51963;46.052;14.544;2023-05-02T11:11:50;98230.19;;;15.03;100.00
56182;BME280;51963;46.052;14.544;2023-05-02T11:19:29;98212.50;;;15.46;100.00
56182;BME280;51963;46.052;14.544;2023-05-02T11:24:44;98239.81;;;15.22;100.00
56182;BME280;51963;46.052;14.544;2023-05-02T11:29:58;98220.78;;;15.00;100.00
56182;BME280;51963;46.052;14.544;2023-05-02T11:33:10;98236.78;;;15.19;100.00
56182;BME280;51963;46.052;14.544;2023-05-02T11:35:21;98231.84;;;15.22;100.00
56182;BME280;51963;46.052;14.544;2023-05-02T11:37:58;98229.09;;;15.29;100.00
56182;BME280;51963;46.052;14.544;2023-05-02T11:40:26;98244.47;;;15.46;100.00
56182;BME280;51963;46.052;14.544;2023-05-02T11:42:53;98243.81;;;15.32;100.00
56182;BME280;51963;46.052;14.544;2023-05-02T11:45:19;98234.34;;;15.36;100.00
56182;BME280;51963;46.052;14.544;2023-05-02T11:47:47;98229.81;;;15.18;100.00
56182;BME280;51963;46.052;14.544;2023-05-02T11:50:13;98243.13;;;14.99;100.00
56182;BME280;51963;46.052;14.544;2023-05-02T11:52:41;98259.53;;;14.96;100.00
56182;BME280;51963;46.052;14.544;2023-05-02T11:55:10;98256.09;;;14.89;100.00
56182;BME280;51963;46.052;14.544;2023-05-02T11:57:39;98244.25;;;14.85;100.00
56182;BME280;51963;46.052;14.544;2023-05-02T12:00:11;98249.69;;;14.71;100.00
56182;BME280;51963;46.052;14.544;2023-05-02T12:02:43;98258.28;;;14.73;100.00
56182;BME280;51963;46.052;14.544;2023-05-02T12:05:10;98259.38;;;14.91;100.00
56182;BME280;51963;46.052;14.544;2023-05-02T12:07:37;98259.78;;;14.62;100.00
56182;BME280;51963;46.052;14.544;2023-05-02T12:10:04;98233.97;;;14.70;100.00
56182;BME280;51963;46.052;14.544;2023-05-02T12:12:31;98260.72;;;15.00;100.00
56182;BME280;51963;46.052;14.544;2023-05-02T12:15:02;98263.66;;;14.92;100.00
56182;BME280;51963;46.052;14.544;2023-05-02T12:17:28;98254.78;;;14.98;100.00
56182;BME280;51963;46.052;14.544;2023-05-02T12:19:54;98262.72;;;15.05;100.00
56182;BME280;51963;46.052;14.544;2023-05-02T12:22:22;98265.56;;;14.85;100.00
56182;BME280;51963;46.052;14.544;2023-05-02T12:24:48;98255.91;;;14.90;100.00
56182;BME280;51963;46.052;14.544;2023-05-02T12:27:15;98260.97;;;14.66;100.00
56182;BME280;51963;46.052;14.544;2023-05-02T12:29:43;98260.81;;;14.61;100.00
56182;BME280;51963;46.052;14.544;2023-05-02T12:32:13;98263.94;;;14.51;100.00
56182;BME280;51963;46.052;14.544;2023-05-02T12:34:40;98242.84;;;14.25;100.00
56182;BME280;51963;46.052;14.544;2023-05-02T12:37:07;98257.44;;;14.47;100.00
56182;BME280;51963;46.052;14.544;2023-05-02T12:39:40;98258.53;;;14.65;100.00
56182;BME280;51963;46.052;14.544;2023-05-02T12:42:18;98264.03;;;14.95;100.00
56182;BME280;51963;46.052;14.544;2023-05-02T12:44:45;98264.75;;;14.84;100.00
56182;BME280;51963;46.052;14.544;2023-05-02T12:47:15;98268.78;;;14.93;100.00
56182;BME280;51963;46.052;14.544;2023-05-02T12:49:55;98230.94;;;14.59;100.00
56182;BME280;51963;46.052;14.544;2023-05-02T12:55:22;98264.25;;;14.69;100.00
56182;BME280;51963;46.052;14.544;2023-05-02T12:57:49;98276.88;;;14.80;100.00
56182;BME280;51963;46.052;14.544;2023-05-02T13:00:16;98280.09;;;15.07;100.00
56182;BME280;51963;46.052;14.544;2023-05-02T13:02:42;98276.22;;;15.29;100.00
56182;BME280;51963;46.052;14.544;2023-05-02T13:05:15;98229.88;;;14.92;100.00
56182;BME280;51963;46.052;14.544;2023-05-02T13:07:42;98270.03;;;15.09;100.00
56182;BME280;51963;46.052;14.544;2023-05-02T13:10:08;98266.00;;;15.07;100.00
56182;BME280;51963;46.052;14.544;2023-05-02T13:12:34;98260.34;;;14.96;100.00
56182;BME280;51963;46.052;14.544;2023-05-02T13:15:02;98280.66;;;14.91;100.00
56182;BME280;51963;46.052;14.544;2023-05-02T13:17:29;98273.22;;;14.74;100.00
56182;BME280;51963;46.052;14.544;2023-05-02T13:19:55;98279.31;;;14.81;100.00
56182;BME280;51963;46.052;14.544;2023-05-02T13:22:20;98264.81;;;15.03;100.00
56182;BME280;51963;46.052;14.544;2023-05-02T13:24:50;98267.09;;;15.18;100.00
56182;BME280;51963;46.052;14.544;2023-05-02T13:27:18;98284.56;;;15.32;100.00
56182;BME280;51963;46.052;14.544;2023-05-02T13:29:44;98271.72;;;15.48;100.00
56182;BME280;51963;46.052;14.544;2023-05-02T13:32:10;98279.63;;;15.36;100.00